Jewel Of The Seas — C6FW9 — position and weather

sailwx.info

Track history (hours):
 
Tides and Currents Weather Stations Pressure Air Temp Water Temp Dewpoint Dewpoint Depression Visibility Wind Speed Wind Dir Waves Ship Positions

Jewel Of The Seas

Operator: Royal Caribbean Cruises Ltd

Last reported at 2017-Nov-12 23:27 UTC. Time now 2017-Nov-18 13:58 UTC.
Position N 37°25' W 026°53'.

Length 290 m; draft 8.6 m.

Type: Passenger vessel. MMSI: 311583000.

Date/timePositionNaut miles runAvg speedWind from/ knotsBaromVisibWave heightAir tempDewpointWater temp
2017-Nov-12 23:27N 37°25' W 026°53'715.7
2017-Nov-12 23:00N 37°27' W 026°45'815.2
2017-Nov-12 22:30N 37°30' W 026°36'714.9
2017-Nov-12 22:00N 37°32' W 026°27'815.3
2017-Nov-12 21:30N 37°34' W 026°17'815.2
2017-Nov-12 21:00N 37°36' W 026°08'815.2
2017-Nov-12 20:30N 37°39' W 025°59'815.4
2017-Nov-12 20:01N 37°41' W 025°50'815.1
2017-Nov-12 19:31N 37°43' W 025°41'2 3.0
2017-Nov-12 19:01N 37°44' W 025°40'0 0.0
2017-Nov-12 18:30N 37°44' W 025°40'0 0.0
2017-Nov-12 18:00N 37°44' W 025°40'0 0.0
2017-Nov-12 17:30N 37°44' W 025°40'0 0.0
2017-Nov-12 17:00N 37°44' W 025°40'0 0.0
2017-Nov-12 16:30N 37°44' W 025°40'0 0.0
2017-Nov-12 16:00N 37°44' W 025°40'0 0.0
2017-Nov-12 15:30N 37°44' W 025°40'0 0.0
2017-Nov-12 15:00N 37°44' W 025°40'0 0.0
2017-Nov-12 14:30N 37°44' W 025°40'0 0.0
2017-Nov-12 14:00N 37°44' W 025°40'0 0.0
2017-Nov-12 13:30N 37°44' W 025°40'0 0.0
2017-Nov-12 13:00N 37°44' W 025°40'0 0.0
2017-Nov-12 12:30N 37°44' W 025°40'0 0.0
2017-Nov-12 12:00N 37°44' W 025°40'0 0.0
2017-Nov-12 11:30N 37°44' W 025°40'0 0.0
2017-Nov-12 11:00N 37°44' W 025°40'0 0.0
2017-Nov-12 10:30N 37°44' W 025°40'2 4.2
2017-Nov-12 10:00N 37°43' W 025°37'815.2
2017-Nov-12 09:31N 37°40' W 025°29'918.7
2017-Nov-12 09:01N 37°40' W 025°17'918.4
2017-Nov-12 08:31N 37°41' W 025°06'918.4
2017-Nov-12 08:01N 37°41' W 024°54'918.8
2017-Nov-12 07:30N 37°42' W 024°42'918.4
2017-Nov-12 07:00N 37°43' W 024°31'918.6
2017-Nov-12 06:30N 37°43' W 024°19'918.6
2017-Nov-12 06:00N 37°44' W 024°07'1019.0
2017-Nov-12 05:30N 37°45' W 023°55'1018.8
2017-Nov-12 04:59N 37°45' W 023°43'64219.1
2017-Nov-10 19:22N 38°33' W 010°08'718.8
2017-Nov-10 19:01N 38°33' W 009°59'1019.3
2017-Nov-10 18:30N 38°34' W 009°47'1019.7
2017-Nov-10 18:01N 38°35' W 009°35'1019.1
2017-Nov-10 17:31N 38°37' W 009°23'816.0
2017-Nov-10 17:00N 38°41' W 009°14'5 9.5
2017-Nov-10 16:30N 38°42' W 009°08'1 1.2
2017-Nov-10 16:00N 38°43' W 009°07'0 0.0
2017-Nov-10 15:30N 38°43' W 009°07'0 0.0
2017-Nov-10 15:00N 38°43' W 009°07'0 0.0
2017-Nov-10 14:30N 38°43' W 009°07'0 0.0
2017-Nov-10 14:00N 38°43' W 009°07'0 0.0
2017-Nov-10 13:30N 38°43' W 009°07'0 0.0
2017-Nov-10 13:00N 38°43' W 009°07'0 0.0
2017-Nov-10 12:30N 38°43' W 009°07'0 0.0
2017-Nov-10 12:00N 38°43' W 009°07'0 0.0
2017-Nov-10 11:30N 38°43' W 009°07'0 0.0
2017-Nov-10 11:00N 38°43' W 009°07'0 0.0
2017-Nov-10 10:30N 38°43' W 009°07'0 0.0
2017-Nov-10 10:00N 38°43' W 009°07'0 0.0
2017-Nov-10 09:30N 38°43' W 009°07'0 0.0
2017-Nov-10 09:00N 38°43' W 009°07'2 4.7
2017-Nov-10 08:30N 38°41' W 009°10'4 9.1
2017-Nov-10 08:00N 38°41' W 009°16'816.4
2017-Nov-10 07:30N 38°36' W 009°24'917.6
2017-Nov-10 07:00N 38°27' W 009°24'917.7
2017-Nov-10 06:30N 38°18' W 009°24'918.3
2017-Nov-10 06:00N 38°09' W 009°23'918.3
2017-Nov-10 05:30N 37°60' W 009°23'918.3
2017-Nov-10 05:00N 37°51' W 009°23'918.7
2017-Nov-10 04:30N 37°41' W 009°23'40415.2
2017-Nov-09 01:50N 37°19' W 000°54'619.2
2017-Nov-09 01:30N 37°23' W 000°48'1019.1
2017-Nov-09 00:59N 37°30' W 000°39'918.8
2017-Nov-09 00:30N 37°37' W 000°31'1019.1
2017-Nov-09 00:00N 37°45' W 000°24'1018.8
2017-Nov-08 23:29N 37°53' W 000°17'54211.4
2017-Nov-06 23:54N 43°08' E 009°22'1015.6
2017-Nov-06 23:15N 43°05' E 009°35'248 8.6
2017-Nov-05 18:22N 40°38' E 014°02'615.9
2017-Nov-05 18:01N 40°41' E 014°08'816.0
2017-Nov-05 17:31N 40°47' E 014°16'86 4.6
2017-Nov-04 22:42N 39°26' E 014°54'314.7
2017-Nov-04 22:30N 39°23' E 014°56'4915.2
2017-Nov-04 19:15N 38°40' E 015°26'716.6
2017-Nov-04 18:48N 38°34' E 015°31'516.3
2017-Nov-04 18:30N 38°30' E 015°34'815.4
2017-Nov-04 18:00N 38°23' E 015°39'911.8
2017-Nov-04 17:17N 38°14' E 015°38'413.6
2017-Nov-04 16:59N 38°12' E 015°34'0 0.6
2017-Nov-04 16:18N 38°12' E 015°33'0 0.0
2017-Nov-04 16:00N 38°12' E 015°33'0 0.0
2017-Nov-04 15:30N 38°12' E 015°33'0 0.0
2017-Nov-04 15:00N 38°12' E 015°33'0 0.0
2017-Nov-04 14:30N 38°12' E 015°33'0 0.0
2017-Nov-04 14:00N 38°12' E 015°33'0 0.0
2017-Nov-04 13:30N 38°12' E 015°33'0 0.0
2017-Nov-04 13:00N 38°12' E 015°33'0 0.0
2017-Nov-04 12:24N 38°12' E 015°33'0 0.0
2017-Nov-04 12:00N 38°12' E 015°33'0 0.0
2017-Nov-04 11:30N 38°12' E 015°33'0 0.0
2017-Nov-04 11:00N 38°12' E 015°33'0 0.0
2017-Nov-04 10:30N 38°12' E 015°33'0 0.0
2017-Nov-04 09:54N 38°12' E 015°33'0 0.0
2017-Nov-04 09:30N 38°12' E 015°33'0 0.0
2017-Nov-04 09:00N 38°12' E 015°33'0 0.0
2017-Nov-04 08:30N 38°12' E 015°33'0 0.0
2017-Nov-04 08:00N 38°12' E 015°33'0 0.0
2017-Nov-04 07:30N 38°12' E 015°33'1 2.6
2017-Nov-04 07:00N 38°13' E 015°35'5 8.8
2017-Nov-04 06:29N 38°08' E 015°37'916.2
2017-Nov-04 05:57N 37°60' E 015°35'2414.4
2017-Nov-04 04:18N 37°36' E 015°37'413.5
2017-Nov-04 04:00N 37°32' E 015°38'713.5
2017-Nov-04 03:30N 37°25' E 015°39'9212.7
2017-Nov-03 20:16N 36°03' E 014°46'313.8
2017-Nov-03 20:00N 36°01' E 014°43'713.8
2017-Nov-03 19:30N 35°57' E 014°36'5 0.4
2017-Nov-03 07:17N 35°54' E 014°31'2 7.8
2017-Nov-03 07:00N 35°55' E 014°33'714.5
2017-Nov-03 06:30N 36°01' E 014°28'816.2
2017-Nov-03 06:00N 36°07' E 014°21'815.9
2017-Nov-03 05:30N 36°10' E 014°12'815.8
2017-Nov-03 05:00N 36°14' E 014°03'815.9
2017-Nov-03 04:30N 36°18' E 013°54'816.0
2017-Nov-03 03:59N 36°21' E 013°45'  
Track history (hours):
 
Tides and Currents Weather Stations Pressure Air Temp Water Temp Dewpoint Dewpoint Depression Visibility Wind Speed Wind Dir Waves Ship Positions

Jewel Of The Seas

Operator: Royal Caribbean Cruises Ltd

Last reported at 2017-Nov-12 23:27 UTC. Time now 2017-Nov-18 13:58 UTC.
Position N 37°25' W 026°53'.

Length 290 m; draft 8.6 m.

Type: Passenger vessel. MMSI: 311583000.

Date/timePositionNaut miles runAvg speedWind from/ knotsBaromVisibWave heightAir tempDewpointWater temp
2017-Nov-12 23:27N 37°25' W 026°53'715.7
2017-Nov-12 23:00N 37°27' W 026°45'815.2
2017-Nov-12 22:30N 37°30' W 026°36'714.9
2017-Nov-12 22:00N 37°32' W 026°27'815.3
2017-Nov-12 21:30N 37°34' W 026°17'815.2
2017-Nov-12 21:00N 37°36' W 026°08'815.2
2017-Nov-12 20:30N 37°39' W 025°59'815.4
2017-Nov-12 20:01N 37°41' W 025°50'815.1
2017-Nov-12 19:31N 37°43' W 025°41'2 3.0
2017-Nov-12 19:01N 37°44' W 025°40'0 0.0
2017-Nov-12 18:30N 37°44' W 025°40'0 0.0
2017-Nov-12 18:00N 37°44' W 025°40'0 0.0
2017-Nov-12 17:30N 37°44' W 025°40'0 0.0
2017-Nov-12 17:00N 37°44' W 025°40'0 0.0
2017-Nov-12 16:30N 37°44' W 025°40'0 0.0
2017-Nov-12 16:00N 37°44' W 025°40'0 0.0
2017-Nov-12 15:30N 37°44' W 025°40'0 0.0
2017-Nov-12 15:00N 37°44' W 025°40'0 0.0
2017-Nov-12 14:30N 37°44' W 025°40'0 0.0
2017-Nov-12 14:00N 37°44' W 025°40'0 0.0
2017-Nov-12 13:30N 37°44' W 025°40'0 0.0
2017-Nov-12 13:00N 37°44' W 025°40'0 0.0
2017-Nov-12 12:30N 37°44' W 025°40'0 0.0
2017-Nov-12 12:00N 37°44' W 025°40'0 0.0
2017-Nov-12 11:30N 37°44' W 025°40'0 0.0
2017-Nov-12 11:00N 37°44' W 025°40'0 0.0
2017-Nov-12 10:30N 37°44' W 025°40'2 4.2
2017-Nov-12 10:00N 37°43' W 025°37'815.2
2017-Nov-12 09:31N 37°40' W 025°29'918.7
2017-Nov-12 09:01N 37°40' W 025°17'918.4
2017-Nov-12 08:31N 37°41' W 025°06'918.4
2017-Nov-12 08:01N 37°41' W 024°54'918.8
2017-Nov-12 07:30N 37°42' W 024°42'918.4
2017-Nov-12 07:00N 37°43' W 024°31'918.6
2017-Nov-12 06:30N 37°43' W 024°19'918.6
2017-Nov-12 06:00N 37°44' W 024°07'1019.0
2017-Nov-12 05:30N 37°45' W 023°55'1018.8
2017-Nov-12 04:59N 37°45' W 023°43'64219.1
2017-Nov-10 19:22N 38°33' W 010°08'718.8
2017-Nov-10 19:01N 38°33' W 009°59'1019.3
2017-Nov-10 18:30N 38°34' W 009°47'1019.7
2017-Nov-10 18:01N 38°35' W 009°35'1019.1
2017-Nov-10 17:31N 38°37' W 009°23'816.0
2017-Nov-10 17:00N 38°41' W 009°14'5 9.5
2017-Nov-10 16:30N 38°42' W 009°08'1 1.2
2017-Nov-10 16:00N 38°43' W 009°07'0 0.0
2017-Nov-10 15:30N 38°43' W 009°07'0 0.0
2017-Nov-10 15:00N 38°43' W 009°07'0 0.0
2017-Nov-10 14:30N 38°43' W 009°07'0 0.0
2017-Nov-10 14:00N 38°43' W 009°07'0 0.0
2017-Nov-10 13:30N 38°43' W 009°07'0 0.0
2017-Nov-10 13:00N 38°43' W 009°07'0 0.0
2017-Nov-10 12:30N 38°43' W 009°07'0 0.0
2017-Nov-10 12:00N 38°43' W 009°07'0 0.0
2017-Nov-10 11:30N 38°43' W 009°07'0 0.0
2017-Nov-10 11:00N 38°43' W 009°07'0 0.0
2017-Nov-10 10:30N 38°43' W 009°07'0 0.0
2017-Nov-10 10:00N 38°43' W 009°07'0 0.0
2017-Nov-10 09:30N 38°43' W 009°07'0 0.0
2017-Nov-10 09:00N 38°43' W 009°07'2 4.7
2017-Nov-10 08:30N 38°41' W 009°10'4 9.1
2017-Nov-10 08:00N 38°41' W 009°16'816.4
2017-Nov-10 07:30N 38°36' W 009°24'917.6
2017-Nov-10 07:00N 38°27' W 009°24'917.7
2017-Nov-10 06:30N 38°18' W 009°24'918.3
2017-Nov-10 06:00N 38°09' W 009°23'918.3
2017-Nov-10 05:30N 37°60' W 009°23'918.3
2017-Nov-10 05:00N 37°51' W 009°23'918.7
2017-Nov-10 04:30N 37°41' W 009°23'40415.2
2017-Nov-09 01:50N 37°19' W 000°54'619.2
2017-Nov-09 01:30N 37°23' W 000°48'1019.1
2017-Nov-09 00:59N 37°30' W 000°39'918.8
2017-Nov-09 00:30N 37°37' W 000°31'1019.1
2017-Nov-09 00:00N 37°45' W 000°24'1018.8
2017-Nov-08 23:29N 37°53' W 000°17'54211.4
2017-Nov-06 23:54N 43°08' E 009°22'1015.6
2017-Nov-06 23:15N 43°05' E 009°35'248 8.6
2017-Nov-05 18:22N 40°38' E 014°02'615.9
2017-Nov-05 18:01N 40°41' E 014°08'816.0
2017-Nov-05 17:31N 40°47' E 014°16'86 4.6
2017-Nov-04 22:42N 39°26' E 014°54'314.7
2017-Nov-04 22:30N 39°23' E 014°56'4915.2
2017-Nov-04 19:15N 38°40' E 015°26'716.6
2017-Nov-04 18:48N 38°34' E 015°31'516.3
2017-Nov-04 18:30N 38°30' E 015°34'815.4
2017-Nov-04 18:00N 38°23' E 015°39'911.8
2017-Nov-04 17:17N 38°14' E 015°38'413.6
2017-Nov-04 16:59N 38°12' E 015°34'0 0.6
2017-Nov-04 16:18N 38°12' E 015°33'0 0.0
2017-Nov-04 16:00N 38°12' E 015°33'0 0.0
2017-Nov-04 15:30N 38°12' E 015°33'0 0.0
2017-Nov-04 15:00N 38°12' E 015°33'0 0.0
2017-Nov-04 14:30N 38°12' E 015°33'0 0.0
2017-Nov-04 14:00N 38°12' E 015°33'0 0.0
2017-Nov-04 13:30N 38°12' E 015°33'0 0.0
2017-Nov-04 13:00N 38°12' E 015°33'0 0.0
2017-Nov-04 12:24N 38°12' E 015°33'0 0.0
2017-Nov-04 12:00N 38°12' E 015°33'0 0.0
2017-Nov-04 11:30N 38°12' E 015°33'0 0.0
2017-Nov-04 11:00N 38°12' E 015°33'0 0.0
2017-Nov-04 10:30N 38°12' E 015°33'0 0.0
2017-Nov-04 09:54N 38°12' E 015°33'0 0.0
2017-Nov-04 09:30N 38°12' E 015°33'0 0.0
2017-Nov-04 09:00N 38°12' E 015°33'0 0.0
2017-Nov-04 08:30N 38°12' E 015°33'0 0.0
2017-Nov-04 08:00N 38°12' E 015°33'0 0.0
2017-Nov-04 07:30N 38°12' E 015°33'1 2.6
2017-Nov-04 07:00N 38°13' E 015°35'5 8.8
2017-Nov-04 06:29N 38°08' E 015°37'916.2
2017-Nov-04 05:57N 37°60' E 015°35'2414.4
2017-Nov-04 04:18N 37°36' E 015°37'413.5
2017-Nov-04 04:00N 37°32' E 015°38'713.5
2017-Nov-04 03:30N 37°25' E 015°39'9212.7
2017-Nov-03 20:16N 36°03' E 014°46'313.8
2017-Nov-03 20:00N 36°01' E 014°43'713.8
2017-Nov-03 19:30N 35°57' E 014°36'5 0.4
2017-Nov-03 07:17N 35°54' E 014°31'2 7.8
2017-Nov-03 07:00N 35°55' E 014°33'714.5
2017-Nov-03 06:30N 36°01' E 014°28'816.2
2017-Nov-03 06:00N 36°07' E 014°21'815.9
2017-Nov-03 05:30N 36°10' E 014°12'815.8
2017-Nov-03 05:00N 36°14' E 014°03'815.9
2017-Nov-03 04:30N 36°18' E 013°54'816.0
2017-Nov-03 03:59N 36°21' E 013°45'  

Dump ship's entire track history